MV Moseldijk — PBWK — position and weather

sailwx.info

Track history (hours):
 
Tides and Currents Weather Stations Pressure Air Temp Water Temp Dewpoint Dewpoint Depression Visibility Wind Speed Wind Dir Waves Ship Positions

MV Moseldijk

Last reported at 2015-Aug-24 16:33 UTC. Time now 2015-Aug-27 21:31 UTC.
Position N 50°41' E 000°46'.

Length 90 m; draft 6.5 m.

Type: Cargo ship. MMSI: 246644000.

Date/timePositionNaut miles runAvg speedWind from/ knotsBaromVisibWave heightAir tempDewpointWater temp
2015-Aug-24 16:33N 50°41' E 000°46'9 9.2
2015-Aug-24 15:32N 50°46' E 000°59'2010.0
2015-Aug-24 13:33N 50°58' E 001°23'1111.2
2015-Aug-24 12:33N 51°07' E 001°35'1110.8
2015-Aug-24 11:33N 51°15' E 001°47'1010.0
2015-Aug-24 10:33N 51°23' E 001°54'9 9.3
2015-Aug-24 09:33N 51°31' E 002°03'10 9.2
2015-Aug-24 08:31N 51°38' E 002°13'9 9.0
2015-Aug-24 07:33N 51°45' E 002°23'127 9.7
2015-Aug-23 18:26N 53°24' E 004°32'9 9.8
2015-Aug-23 17:33N 53°32' E 004°37'10 9.9
2015-Aug-23 16:34N 53°41' E 004°43'10 9.7
2015-Aug-23 15:33N 53°50' E 004°49'9 9.4
2015-Aug-23 14:33N 53°59' E 004°55'9 9.0
2015-Aug-23 13:30N 54°08' E 005°01'8 8.9
2015-Aug-23 12:33N 54°15' E 005°07'38 9.3
2015-Aug-23 08:28N 54°50' E 005°34'10 9.7
2015-Aug-23 07:28N 54°58' E 005°43'9 9.6
2015-Aug-23 06:30N 55°06' E 005°53'9 9.5
2015-Aug-23 05:32N 55°13' E 006°01'1310.3
2015-Aug-23 04:17N 55°25' E 006°12'156 9.7
2015-Aug-22 12:12N 57°43' E 008°23'6 9.8
2015-Aug-22 11:34N 57°48' E 008°29'1010.1
2015-Aug-22 10:34N 57°57' E 008°39'1010.2
2015-Aug-22 09:33N 58°04' E 008°52'1110.7
2015-Aug-22 08:34N 58°12' E 009°05'1010.4
2015-Aug-22 07:33N 58°20' E 009°18'1010.4
2015-Aug-22 06:33N 58°28' E 009°30'1110.6
2015-Aug-22 05:34N 58°37' E 009°40'1111.3
2015-Aug-22 04:34N 58°49' E 009°44'1110.6
2015-Aug-22 03:34N 58°59' E 009°47'8 8.2
2015-Aug-22 02:33N 59°06' E 009°38'4 0.1
2015-Aug-20 15:33N 59°03' E 009°42'9 9.3
2015-Aug-20 14:33N 58°54' E 009°47'10 9.7
2015-Aug-20 13:33N 58°44' E 009°47'9 9.4
2015-Aug-20 12:33N 58°35' E 009°47'20 8.7
2015-Aug-20 10:18N 58°19' E 009°27'7 8.8
2015-Aug-20 09:32N 58°14' E 009°18'10 8.4
2015-Aug-20 08:20N 58°06' E 009°06'6 8.2
2015-Aug-20 07:33N 58°01' E 008°57'9 9.3
2015-Aug-20 06:33N 57°54' E 008°46'25111.7
2015-Aug-19 09:08N 54°13' E 005°15'712.0
2015-Aug-19 08:33N 54°06' E 005°09'1311.9
2015-Aug-19 07:30N 53°55' E 005°02'2712.0
2015-Aug-19 05:17N 53°30' E 004°45'8210.4
2015-Aug-18 21:25N 52°14' E 003°53'910.5
2015-Aug-18 20:33N 52°05' E 003°55'8 7.8
2015-Aug-18 19:33N 51°59' E 004°03'1212.0
2015-Aug-18 18:33N 51°54' E 004°20'3 2.8
2015-Aug-18 17:33N 51°54' E 004°25'0 0.0
2015-Aug-18 16:33N 51°54' E 004°25'0 0.0
2015-Aug-18 15:33N 51°54' E 004°25'0 0.0
2015-Aug-18 14:33N 51°54' E 004°25'0 0.0
2015-Aug-18 13:33N 51°54' E 004°25'0 0.0
2015-Aug-18 12:33N 51°54' E 004°25'0 0.0
2015-Aug-18 11:33N 51°54' E 004°25'0 0.0
2015-Aug-18 10:33N 51°54' E 004°25'0 0.0
2015-Aug-18 09:33N 51°54' E 004°25'0 0.0
2015-Aug-18 08:33N 51°54' E 004°25'0 0.0
2015-Aug-18 07:33N 51°54' E 004°25'0 0.0
2015-Aug-18 06:33N 51°54' E 004°25'0 0.0
2015-Aug-18 05:33N 51°54' E 004°25'0 0.0
2015-Aug-18 04:33N 51°54' E 004°25'0 0.0
2015-Aug-18 04:09N 51°54' E 004°25'0 0.0
2015-Aug-18 04:06N 51°54' E 004°25'0 0.0
2015-Aug-18 03:33N 51°54' E 004°25'0 0.0
2015-Aug-18 02:33N 51°54' E 004°25'0 0.0
2015-Aug-18 01:33N 51°54' E 004°25'0 0.0
2015-Aug-18 00:33N 51°54' E 004°25'0 0.0
2015-Aug-17 23:33N 51°54' E 004°25'0 0.0
2015-Aug-17 22:33N 51°54' E 004°25'0 0.0
2015-Aug-17 21:33N 51°54' E 004°25'0 0.0
2015-Aug-17 20:33N 51°54' E 004°25'0 0.0
2015-Aug-17 19:33N 51°54' E 004°25'0 0.0
2015-Aug-17 18:33N 51°54' E 004°25'0 0.0
2015-Aug-17 17:33N 51°54' E 004°25'0 0.0
2015-Aug-17 16:33N 51°54' E 004°25'0 0.0
2015-Aug-17 14:33N 51°54' E 004°25'0 0.0
2015-Aug-17 13:33N 51°54' E 004°25'0 0.0
2015-Aug-17 12:33N 51°54' E 004°25'0 0.0
2015-Aug-17 11:33N 51°54' E 004°25'0 0.0
2015-Aug-17 10:33N 51°54' E 004°25'0 0.0
2015-Aug-17 09:33N 51°54' E 004°25'0 0.0
2015-Aug-17 08:33N 51°54' E 004°25'0 0.0
2015-Aug-17 07:33N 51°54' E 004°25'0 0.0
2015-Aug-17 06:33N 51°54' E 004°25'0 0.0
2015-Aug-17 05:33N 51°54' E 004°25'0 0.0
2015-Aug-17 04:33N 51°54' E 004°25'0 0.0
2015-Aug-17 03:33N 51°54' E 004°25'0 0.0
2015-Aug-17 02:33N 51°54' E 004°25'0 0.0
2015-Aug-17 01:33N 51°54' E 004°25'0 0.0
2015-Aug-17 00:33N 51°54' E 004°25'0 0.0
2015-Aug-16 23:33N 51°54' E 004°25'0 0.0
2015-Aug-16 22:33N 51°54' E 004°25'0 0.0
2015-Aug-16 21:33N 51°54' E 004°25'0 0.0
2015-Aug-16 20:33N 51°54' E 004°25'0 0.0
2015-Aug-16 19:33N 51°54' E 004°25'0 0.0
2015-Aug-16 18:33N 51°54' E 004°25'6 5.9
2015-Aug-16 17:34N 51°55' E 004°15'1110.6
2015-Aug-16 16:33N 51°60' E 004°00'1211.2
2015-Aug-16 15:30N 51°59' E 003°41'6010.1
2015-Aug-16 09:32N 51°30' E 002°16'8 8.4
2015-Aug-16 08:33N 51°23' E 002°08'8 7.8
2015-Aug-16 07:33N 51°16' E 002°06'8 7.7
2015-Aug-16 06:33N 51°11' E 001°56'7 6.8
2015-Aug-16 05:34N 51°08' E 001°46'8 7.9
2015-Aug-16 04:34N 51°02' E 001°37'41 9.2
2015-Aug-16 00:07N 50°30' E 000°58'  
Track history (hours):
 
Tides and Currents Weather Stations Pressure Air Temp Water Temp Dewpoint Dewpoint Depression Visibility Wind Speed Wind Dir Waves Ship Positions

MV Moseldijk

Last reported at 2015-Aug-24 16:33 UTC. Time now 2015-Aug-27 21:31 UTC.
Position N 50°41' E 000°46'.

Length 90 m; draft 6.5 m.

Type: Cargo ship. MMSI: 246644000.

Date/timePositionNaut miles runAvg speedWind from/ knotsBaromVisibWave heightAir tempDewpointWater temp
2015-Aug-24 16:33N 50°41' E 000°46'9 9.2
2015-Aug-24 15:32N 50°46' E 000°59'2010.0
2015-Aug-24 13:33N 50°58' E 001°23'1111.2
2015-Aug-24 12:33N 51°07' E 001°35'1110.8
2015-Aug-24 11:33N 51°15' E 001°47'1010.0
2015-Aug-24 10:33N 51°23' E 001°54'9 9.3
2015-Aug-24 09:33N 51°31' E 002°03'10 9.2
2015-Aug-24 08:31N 51°38' E 002°13'9 9.0
2015-Aug-24 07:33N 51°45' E 002°23'127 9.7
2015-Aug-23 18:26N 53°24' E 004°32'9 9.8
2015-Aug-23 17:33N 53°32' E 004°37'10 9.9
2015-Aug-23 16:34N 53°41' E 004°43'10 9.7
2015-Aug-23 15:33N 53°50' E 004°49'9 9.4
2015-Aug-23 14:33N 53°59' E 004°55'9 9.0
2015-Aug-23 13:30N 54°08' E 005°01'8 8.9
2015-Aug-23 12:33N 54°15' E 005°07'38 9.3
2015-Aug-23 08:28N 54°50' E 005°34'10 9.7
2015-Aug-23 07:28N 54°58' E 005°43'9 9.6
2015-Aug-23 06:30N 55°06' E 005°53'9 9.5
2015-Aug-23 05:32N 55°13' E 006°01'1310.3
2015-Aug-23 04:17N 55°25' E 006°12'156 9.7
2015-Aug-22 12:12N 57°43' E 008°23'6 9.8
2015-Aug-22 11:34N 57°48' E 008°29'1010.1
2015-Aug-22 10:34N 57°57' E 008°39'1010.2
2015-Aug-22 09:33N 58°04' E 008°52'1110.7
2015-Aug-22 08:34N 58°12' E 009°05'1010.4
2015-Aug-22 07:33N 58°20' E 009°18'1010.4
2015-Aug-22 06:33N 58°28' E 009°30'1110.6
2015-Aug-22 05:34N 58°37' E 009°40'1111.3
2015-Aug-22 04:34N 58°49' E 009°44'1110.6
2015-Aug-22 03:34N 58°59' E 009°47'8 8.2
2015-Aug-22 02:33N 59°06' E 009°38'4 0.1
2015-Aug-20 15:33N 59°03' E 009°42'9 9.3
2015-Aug-20 14:33N 58°54' E 009°47'10 9.7
2015-Aug-20 13:33N 58°44' E 009°47'9 9.4
2015-Aug-20 12:33N 58°35' E 009°47'20 8.7
2015-Aug-20 10:18N 58°19' E 009°27'7 8.8
2015-Aug-20 09:32N 58°14' E 009°18'10 8.4
2015-Aug-20 08:20N 58°06' E 009°06'6 8.2
2015-Aug-20 07:33N 58°01' E 008°57'9 9.3
2015-Aug-20 06:33N 57°54' E 008°46'25111.7
2015-Aug-19 09:08N 54°13' E 005°15'712.0
2015-Aug-19 08:33N 54°06' E 005°09'1311.9
2015-Aug-19 07:30N 53°55' E 005°02'2712.0
2015-Aug-19 05:17N 53°30' E 004°45'8210.4
2015-Aug-18 21:25N 52°14' E 003°53'910.5
2015-Aug-18 20:33N 52°05' E 003°55'8 7.8
2015-Aug-18 19:33N 51°59' E 004°03'1212.0
2015-Aug-18 18:33N 51°54' E 004°20'3 2.8
2015-Aug-18 17:33N 51°54' E 004°25'0 0.0
2015-Aug-18 16:33N 51°54' E 004°25'0 0.0
2015-Aug-18 15:33N 51°54' E 004°25'0 0.0
2015-Aug-18 14:33N 51°54' E 004°25'0 0.0
2015-Aug-18 13:33N 51°54' E 004°25'0 0.0
2015-Aug-18 12:33N 51°54' E 004°25'0 0.0
2015-Aug-18 11:33N 51°54' E 004°25'0 0.0
2015-Aug-18 10:33N 51°54' E 004°25'0 0.0
2015-Aug-18 09:33N 51°54' E 004°25'0 0.0
2015-Aug-18 08:33N 51°54' E 004°25'0 0.0
2015-Aug-18 07:33N 51°54' E 004°25'0 0.0
2015-Aug-18 06:33N 51°54' E 004°25'0 0.0
2015-Aug-18 05:33N 51°54' E 004°25'0 0.0
2015-Aug-18 04:33N 51°54' E 004°25'0 0.0
2015-Aug-18 04:09N 51°54' E 004°25'0 0.0
2015-Aug-18 04:06N 51°54' E 004°25'0 0.0
2015-Aug-18 03:33N 51°54' E 004°25'0 0.0
2015-Aug-18 02:33N 51°54' E 004°25'0 0.0
2015-Aug-18 01:33N 51°54' E 004°25'0 0.0
2015-Aug-18 00:33N 51°54' E 004°25'0 0.0
2015-Aug-17 23:33N 51°54' E 004°25'0 0.0
2015-Aug-17 22:33N 51°54' E 004°25'0 0.0
2015-Aug-17 21:33N 51°54' E 004°25'0 0.0
2015-Aug-17 20:33N 51°54' E 004°25'0 0.0
2015-Aug-17 19:33N 51°54' E 004°25'0 0.0
2015-Aug-17 18:33N 51°54' E 004°25'0 0.0
2015-Aug-17 17:33N 51°54' E 004°25'0 0.0
2015-Aug-17 16:33N 51°54' E 004°25'0 0.0
2015-Aug-17 14:33N 51°54' E 004°25'0 0.0
2015-Aug-17 13:33N 51°54' E 004°25'0 0.0
2015-Aug-17 12:33N 51°54' E 004°25'0 0.0
2015-Aug-17 11:33N 51°54' E 004°25'0 0.0
2015-Aug-17 10:33N 51°54' E 004°25'0 0.0
2015-Aug-17 09:33N 51°54' E 004°25'0 0.0
2015-Aug-17 08:33N 51°54' E 004°25'0 0.0
2015-Aug-17 07:33N 51°54' E 004°25'0 0.0
2015-Aug-17 06:33N 51°54' E 004°25'0 0.0
2015-Aug-17 05:33N 51°54' E 004°25'0 0.0
2015-Aug-17 04:33N 51°54' E 004°25'0 0.0
2015-Aug-17 03:33N 51°54' E 004°25'0 0.0
2015-Aug-17 02:33N 51°54' E 004°25'0 0.0
2015-Aug-17 01:33N 51°54' E 004°25'0 0.0
2015-Aug-17 00:33N 51°54' E 004°25'0 0.0
2015-Aug-16 23:33N 51°54' E 004°25'0 0.0
2015-Aug-16 22:33N 51°54' E 004°25'0 0.0
2015-Aug-16 21:33N 51°54' E 004°25'0 0.0
2015-Aug-16 20:33N 51°54' E 004°25'0 0.0
2015-Aug-16 19:33N 51°54' E 004°25'0 0.0
2015-Aug-16 18:33N 51°54' E 004°25'6 5.9
2015-Aug-16 17:34N 51°55' E 004°15'1110.6
2015-Aug-16 16:33N 51°60' E 004°00'1211.2
2015-Aug-16 15:30N 51°59' E 003°41'6010.1
2015-Aug-16 09:32N 51°30' E 002°16'8 8.4
2015-Aug-16 08:33N 51°23' E 002°08'8 7.8
2015-Aug-16 07:33N 51°16' E 002°06'8 7.7
2015-Aug-16 06:33N 51°11' E 001°56'7 6.8
2015-Aug-16 05:34N 51°08' E 001°46'8 7.9
2015-Aug-16 04:34N 51°02' E 001°37'41 9.2
2015-Aug-16 00:07N 50°30' E 000°58'  

Dump ship's entire track history